createdAt,value
2023-05-03T00:02:06.262Z,99036.19
2023-05-03T00:04:34.582Z,99045.44
2023-05-03T00:07:01.869Z,99047.94
2023-05-03T00:09:28.778Z,99044.78
2023-05-03T00:11:55.884Z,99046.00
2023-05-03T00:14:22.788Z,99038.59
2023-05-03T00:16:49.873Z,99050.81
2023-05-03T00:19:30.500Z,99049.94
2023-05-03T00:21:58.359Z,99052.97
2023-05-03T00:24:25.274Z,99051.34
2023-05-03T00:26:52.248Z,99048.94
2023-05-03T00:29:21.173Z,99041.13
2023-05-03T00:31:48.343Z,99042.59
2023-05-03T00:34:15.460Z,99039.69
2023-05-03T00:36:42.530Z,99038.06
2023-05-03T00:39:09.924Z,99042.91
2023-05-03T00:41:37.019Z,99044.78
2023-05-03T00:44:04.239Z,99045.81
2023-05-03T00:46:31.234Z,99042.53
2023-05-03T00:48:58.351Z,99045.97
2023-05-03T00:51:27.880Z,99033.88
2023-05-03T00:53:54.878Z,99031.78
2023-05-03T00:56:23.413Z,99037.34
2023-05-03T00:58:53.632Z,99028.75
2023-05-03T01:01:21.355Z,99025.22
2023-05-03T01:03:48.808Z,99029.09
2023-05-03T01:06:39.098Z,99026.69
2023-05-03T01:10:00.446Z,99026.31
2023-05-03T01:12:57.078Z,99022.56
2023-05-03T01:16:05.959Z,99021.34
2023-05-03T01:18:39.310Z,99020.94
2023-05-03T01:21:07.873Z,99033.16
2023-05-03T01:23:52.142Z,99027.50
2023-05-03T01:26:25.074Z,99023.34
2023-05-03T01:28:52.149Z,99014.50
2023-05-03T01:31:44.682Z,99010.41
2023-05-03T01:34:36.142Z,99004.88
2023-05-03T01:37:04.738Z,99014.66
2023-05-03T01:40:01.027Z,99000.34
2023-05-03T01:42:29.930Z,99002.16
2023-05-03T01:44:57.361Z,99001.53
2023-05-03T01:47:24.567Z,98995.97
2023-05-03T01:49:51.549Z,99001.06
2023-05-03T01:52:18.492Z,99004.34
2023-05-03T01:54:45.650Z,98993.03
2023-05-03T01:57:12.831Z,98999.66
2023-05-03T01:59:39.861Z,98999.06
2023-05-03T02:02:06.832Z,99003.16
2023-05-03T02:04:34.005Z,99006.44
2023-05-03T02:07:01.075Z,99003.94
2023-05-03T02:09:28.238Z,99002.72
2023-05-03T02:11:55.398Z,98998.97
2023-05-03T02:14:22.386Z,99010.50
2023-05-03T02:16:49.769Z,99007.38
2023-05-03T02:19:16.723Z,99006.38
2023-05-03T02:21:43.699Z,99003.94
2023-05-03T02:24:10.660Z,99002.03
2023-05-03T02:26:37.863Z,99003.31
2023-05-03T02:29:04.759Z,99004.72
2023-05-03T02:31:33.591Z,99003.84
2023-05-03T02:34:01.629Z,98999.69
2023-05-03T02:36:28.635Z,99005.84
2023-05-03T02:38:56.719Z,99009.53
2023-05-03T02:41:23.648Z,99017.13
2023-05-03T02:43:51.486Z,99015.59
2023-05-03T02:46:18.813Z,99017.69
2023-05-03T02:48:45.884Z,99011.16
2023-05-03T02:51:12.874Z,99005.97
2023-05-03T02:53:40.092Z,99006.16
2023-05-03T02:56:07.552Z,99006.53
2023-05-03T02:58:34.981Z,99004.50
2023-05-03T03:01:04.000Z,99009.00
2023-05-03T03:03:31.230Z,99011.06
2023-05-03T03:05:58.391Z,99007.16
2023-05-03T03:08:25.644Z,99000.56
2023-05-03T03:10:54.555Z,99001.34
2023-05-03T03:13:21.539Z,99016.50
2023-05-03T03:15:48.598Z,99013.78
2023-05-03T03:18:17.157Z,99009.97
2023-05-03T03:20:44.736Z,99010.91
2023-05-03T03:23:11.913Z,99015.81
2023-05-03T03:25:39.018Z,99013.38
2023-05-03T03:28:06.983Z,99008.94
2023-05-03T03:30:34.625Z,99008.00
2023-05-03T03:33:12.039Z,99012.50
2023-05-03T03:35:41.537Z,99013.31
2023-05-03T03:38:09.489Z,99015.47
2023-05-03T03:40:42.586Z,99016.94
2023-05-03T03:43:10.205Z,99013.47
2023-05-03T03:45:37.933Z,99021.22
2023-05-03T03:48:06.274Z,99023.88
2023-05-03T03:50:34.266Z,99027.56
2023-05-03T03:53:01.566Z,99030.47
2023-05-03T03:55:29.160Z,99029.47
2023-05-03T03:57:57.877Z,99037.78
2023-05-03T04:00:26.775Z,99034.34
2023-05-03T04:03:07.220Z,99033.97
2023-05-03T04:05:34.589Z,99034.31
2023-05-03T04:08:01.940Z,99038.47
2023-05-03T04:10:31.370Z,99033.72
2023-05-03T04:12:58.749Z,99031.63
2023-05-03T04:15:25.770Z,99040.34
2023-05-03T04:17:54.648Z,99038.34
2023-05-03T04:20:22.499Z,99040.75
2023-05-03T04:22:51.332Z,99042.13
2023-05-03T04:25:20.805Z,99034.97
2023-05-03T04:27:56.867Z,99044.38
2023-05-03T04:30:25.970Z,99051.16
2023-05-03T04:32:59.985Z,99050.31
2023-05-03T04:35:28.797Z,99058.75
2023-05-03T04:37:57.566Z,99057.25
2023-05-03T04:40:26.582Z,99058.22
2023-05-03T04:43:02.653Z,99068.88
2023-05-03T04:45:31.951Z,99069.03
2023-05-03T04:47:59.365Z,99067.56
2023-05-03T04:50:26.514Z,99068.06
2023-05-03T04:52:54.421Z,99072.84
2023-05-03T04:55:23.561Z,99069.34
2023-05-03T04:57:51.518Z,99073.84
2023-05-03T05:00:19.047Z,99074.56
2023-05-03T05:02:52.553Z,99074.91
2023-05-03T05:05:20.528Z,99073.19
2023-05-03T05:07:48.289Z,99073.19
2023-05-03T05:10:17.561Z,99071.41
2023-05-03T05:12:44.746Z,99074.84
2023-05-03T05:15:12.877Z,99072.66
2023-05-03T05:17:41.124Z,99071.72
2023-05-03T05:20:13.188Z,99066.13
2023-05-03T05:22:44.523Z,99078.94
2023-05-03T05:25:11.807Z,99080.78
2023-05-03T05:27:41.447Z,99078.28
2023-05-03T05:30:09.136Z,99079.03
2023-05-03T05:32:38.464Z,99084.03
2023-05-03T05:35:08.118Z,99082.00
2023-05-03T05:37:35.085Z,99080.41
2023-05-03T05:40:04.811Z,99080.34
2023-05-03T05:42:37.853Z,99071.81
2023-05-03T05:45:07.879Z,99076.47
2023-05-03T05:47:36.847Z,99076.41
2023-05-03T05:50:14.841Z,99076.84
2023-05-03T05:52:45.642Z,99082.00
2023-05-03T05:55:15.796Z,99080.47
2023-05-03T05:57:44.984Z,99085.50
2023-05-03T06:00:17.141Z,99080.72
2023-05-03T06:02:45.059Z,99079.25
2023-05-03T06:05:16.545Z,99078.53
2023-05-03T06:07:43.754Z,99074.53
2023-05-03T06:10:11.144Z,99081.28
2023-05-03T06:12:40.355Z,99083.91
2023-05-03T06:15:13.898Z,99076.91
2023-05-03T06:17:41.384Z,99073.84
2023-05-03T06:20:14.589Z,99080.31
2023-05-03T06:22:42.387Z,99075.69
2023-05-03T06:25:14.612Z,99076.78
2023-05-03T06:27:44.550Z,99078.50
2023-05-03T06:30:12.906Z,99083.69
2023-05-03T06:32:42.300Z,99075.13
2023-05-03T06:35:10.173Z,99071.81
2023-05-03T06:37:39.153Z,99076.53
2023-05-03T06:40:07.814Z,99070.72
2023-05-03T06:42:36.813Z,99072.97
2023-05-03T06:45:08.717Z,99071.91
2023-05-03T06:47:40.411Z,99077.44
2023-05-03T06:50:08.614Z,99075.09
2023-05-03T06:52:35.712Z,99076.38
2023-05-03T06:55:03.178Z,99075.00
2023-05-03T06:57:30.237Z,99071.34
2023-05-03T06:59:57.294Z,99065.81
2023-05-03T07:02:25.974Z,99068.38
2023-05-03T07:04:53.291Z,99067.47
2023-05-03T07:07:20.430Z,99070.63
2023-05-03T07:09:48.519Z,99059.63
2023-05-03T07:12:16.506Z,99062.59
2023-05-03T07:14:43.640Z,99058.28
2023-05-03T07:17:10.615Z,99065.88
2023-05-03T07:19:38.727Z,99055.22
2023-05-03T07:22:05.802Z,99044.75
2023-05-03T07:24:32.812Z,99046.78
2023-05-03T07:26:59.794Z,99046.06
2023-05-03T07:29:27.532Z,99036.03
2023-05-03T07:31:54.642Z,99028.59
2023-05-03T07:34:21.877Z,99039.13
2023-05-03T07:36:48.927Z,99025.09
2023-05-03T07:39:16.226Z,99026.53
2023-05-03T07:41:43.173Z,99034.13
2023-05-03T07:44:10.272Z,99029.41
2023-05-03T07:46:37.239Z,99026.19
2023-05-03T07:49:06.987Z,99027.91
2023-05-03T07:51:38.576Z,99034.50
2023-05-03T07:54:06.332Z,99023.94
2023-05-03T07:56:33.687Z,99026.91
2023-05-03T07:59:09.493Z,99036.38
2023-05-03T08:01:37.713Z,99026.34
2023-05-03T08:04:05.226Z,99022.72
2023-05-03T08:06:33.545Z,99024.97
2023-05-03T08:09:00.816Z,99024.91
2023-05-03T08:11:29.046Z,99021.88
2023-05-03T08:13:56.862Z,99022.66
2023-05-03T08:16:24.315Z,99018.19
2023-05-03T08:18:51.672Z,99019.75
2023-05-03T08:21:19.331Z,99008.75
2023-05-03T08:23:46.445Z,99021.25
2023-05-03T08:26:14.625Z,99011.09
2023-05-03T08:28:42.426Z,99019.13
2023-05-03T08:31:09.832Z,99018.31
2023-05-03T08:33:37.590Z,99021.31
2023-05-03T08:36:04.876Z,99026.41
2023-05-03T08:38:32.582Z,99027.50
2023-05-03T08:41:15.442Z,99028.38
2023-05-03T08:43:45.843Z,99021.59
2023-05-03T08:46:13.875Z,99024.50
2023-05-03T08:48:40.997Z,99021.38
2023-05-03T08:51:11.133Z,99023.25
2023-05-03T08:53:38.302Z,99031.69
2023-05-03T08:56:17.053Z,99031.84
2023-05-03T08:58:44.305Z,99033.72
2023-05-03T09:01:11.229Z,99031.28
2023-05-03T09:03:38.353Z,99040.53
2023-05-03T09:06:20.884Z,99037.84
2023-05-03T09:08:47.895Z,99036.22
2023-05-03T09:11:30.371Z,99033.75
2023-05-03T09:14:14.840Z,99034.13
2023-05-03T09:16:47.490Z,99033.13
2023-05-03T09:19:16.054Z,99034.53
2023-05-03T09:21:47.212Z,99038.66
2023-05-03T09:24:21.166Z,99035.75
2023-05-03T09:26:52.067Z,99035.09
2023-05-03T09:29:29.340Z,99042.94
2023-05-03T09:32:07.541Z,99032.63
2023-05-03T09:34:35.840Z,99031.63
2023-05-03T09:37:02.856Z,99027.25
2023-05-03T09:39:29.896Z,99029.16
2023-05-03T09:41:56.860Z,99023.88
2023-05-03T09:44:51.409Z,99029.59
2023-05-03T09:47:18.783Z,99032.72
2023-05-03T09:49:46.528Z,99023.63
2023-05-03T09:52:13.577Z,99025.78
2023-05-03T09:54:40.794Z,99025.03
2023-05-03T09:57:09.051Z,99024.50
2023-05-03T09:59:38.181Z,99021.38
2023-05-03T10:02:07.957Z,99020.56
2023-05-03T10:04:52.210Z,99015.31
2023-05-03T10:07:23.351Z,99016.19
2023-05-03T10:09:50.682Z,99016.22
2023-05-03T10:12:18.862Z,99016.47
2023-05-03T10:14:48.475Z,99012.78
2023-05-03T10:17:46.456Z,99000.41
2023-05-03T10:20:32.560Z,99001.22
2023-05-03T10:23:05.772Z,99006.19
2023-05-03T10:25:35.580Z,99004.09
2023-05-03T10:28:09.973Z,98991.13
2023-05-03T10:30:40.973Z,99003.31
2023-05-03T10:33:14.339Z,99005.78
2023-05-03T10:35:44.430Z,98991.78
2023-05-03T10:38:25.718Z,99002.28
2023-05-03T10:40:55.221Z,98991.66
2023-05-03T10:43:34.800Z,98993.22
2023-05-03T10:46:05.025Z,98986.47
2023-05-03T10:48:33.718Z,98986.38
2023-05-03T10:51:33.801Z,98987.34
2023-05-03T10:54:00.811Z,98982.63
2023-05-03T10:56:27.996Z,98989.97
2023-05-03T10:58:59.028Z,98988.13
2023-05-03T11:01:27.515Z,98985.63
2023-05-03T11:04:33.641Z,98983.94
2023-05-03T11:07:01.744Z,98976.53
2023-05-03T11:09:33.800Z,98978.19
2023-05-03T11:12:05.852Z,98971.72
2023-05-03T11:14:32.838Z,98971.44
2023-05-03T11:17:00.007Z,98964.41
2023-05-03T11:19:28.441Z,98960.28
2023-05-03T11:21:55.833Z,98962.19
2023-05-03T11:24:22.785Z,98951.34
2023-05-03T11:26:49.724Z,98953.03
2023-05-03T11:29:17.913Z,98950.13
2023-05-03T11:31:45.961Z,98949.19
2023-05-03T11:34:14.654Z,98942.28
2023-05-03T11:36:42.583Z,98937.59
2023-05-03T11:39:11.093Z,98936.34
2023-05-03T11:41:38.111Z,98937.75
2023-05-03T11:44:16.139Z,98939.84
2023-05-03T11:46:45.844Z,98937.25
2023-05-03T11:49:18.797Z,98930.63
2023-05-03T11:51:49.176Z,98934.28
2023-05-03T11:54:24.829Z,98934.34
2023-05-03T11:57:00.987Z,98931.44
2023-05-03T11:59:39.718Z,98919.44
2023-05-03T12:02:09.723Z,98916.22
2023-05-03T12:04:45.296Z,98928.31
2023-05-03T12:07:17.186Z,98916.31
2023-05-03T12:09:52.844Z,98909.00
2023-05-03T12:12:26.203Z,98899.22
2023-05-03T12:14:59.526Z,98904.53
2023-05-03T12:17:39.183Z,98891.44
2023-05-03T12:22:58.521Z,98882.06
2023-05-03T12:25:28.942Z,98901.22
2023-05-03T12:30:34.968Z,98899.41
2023-05-03T12:33:04.927Z,98891.81
2023-05-03T12:35:34.088Z,98890.41
2023-05-03T12:38:04.330Z,98897.84
2023-05-03T12:40:34.589Z,98898.88
2023-05-03T12:43:03.558Z,98896.78
2023-05-03T12:45:34.515Z,98894.06
2023-05-03T12:48:03.002Z,98891.50
2023-05-03T12:50:31.973Z,98881.78
2023-05-03T12:53:02.371Z,98887.69
2023-05-03T12:55:35.230Z,98894.59
2023-05-03T12:58:36.820Z,98872.09
2023-05-03T13:01:37.107Z,98875.94
2023-05-03T13:03:43.666Z,98876.56
2023-05-03T13:06:14.143Z,98877.53
2023-05-03T13:08:49.581Z,98875.25
2023-05-03T13:11:19.238Z,98863.78
2023-05-03T13:13:46.699Z,98857.16
2023-05-03T13:16:14.572Z,98852.50
2023-05-03T13:18:42.866Z,98853.69
2023-05-03T13:21:11.068Z,98859.06
2023-05-03T13:23:41.274Z,98848.66
2023-05-03T13:26:08.555Z,98843.59
2023-05-03T13:28:35.707Z,98857.84
2023-05-03T13:31:02.652Z,98845.13
2023-05-03T13:33:29.677Z,98843.50
2023-05-03T13:35:57.449Z,98848.47
2023-05-03T13:38:24.440Z,98844.63
2023-05-03T13:40:52.484Z,98836.88
2023-05-03T13:43:19.469Z,98820.66
2023-05-03T13:45:46.510Z,98827.41
2023-05-03T13:48:17.992Z,98831.38
2023-05-03T13:50:45.929Z,98828.47
2023-05-03T13:53:12.900Z,98818.72
2023-05-03T13:55:39.980Z,98820.66
2023-05-03T13:58:06.993Z,98820.19
2023-05-03T14:00:34.652Z,98828.13
2023-05-03T14:03:01.752Z,98833.34
2023-05-03T14:05:29.126Z,98830.06
2023-05-03T14:07:56.744Z,98832.56
2023-05-03T14:10:23.757Z,98821.50
2023-05-03T14:12:51.187Z,98822.66
2023-05-03T14:15:18.954Z,98814.69
2023-05-03T14:17:49.227Z,98816.38
2023-05-03T14:20:17.697Z,98822.00
2023-05-03T14:22:45.717Z,98816.59
2023-05-03T14:25:12.898Z,98803.91
2023-05-03T14:27:40.319Z,98810.16
2023-05-03T14:30:09.538Z,98799.03
2023-05-03T14:32:36.969Z,98804.78
2023-05-03T14:35:04.198Z,98804.28
2023-05-03T14:37:31.322Z,98798.88
2023-05-03T14:39:59.327Z,98795.03
2023-05-03T14:42:30.703Z,98792.13
2023-05-03T14:44:57.962Z,98796.78
2023-05-03T14:47:24.989Z,98781.50
2023-05-03T14:49:52.472Z,98781.78
2023-05-03T14:52:19.593Z,98778.50
2023-05-03T14:54:46.594Z,98769.19
2023-05-03T14:57:13.585Z,98773.72
2023-05-03T14:59:40.671Z,98775.69
2023-05-03T15:02:07.932Z,98781.31
2023-05-03T15:04:37.378Z,98784.44
2023-05-03T15:07:06.458Z,98777.88
2023-05-03T15:09:34.185Z,98782.69
2023-05-03T15:12:02.409Z,98779.25
2023-05-03T15:14:30.056Z,98777.81
2023-05-03T15:16:57.165Z,98785.66
2023-05-03T15:19:24.328Z,98783.00
2023-05-03T15:21:51.965Z,98781.44
2023-05-03T15:24:19.107Z,98775.81
2023-05-03T15:26:47.005Z,98779.75
2023-05-03T15:29:15.631Z,98783.31
2023-05-03T15:31:43.954Z,98769.91
2023-05-03T15:34:12.267Z,98771.63
2023-05-03T15:36:40.549Z,98774.06
2023-05-03T15:39:07.898Z,98771.66
2023-05-03T15:41:35.017Z,98768.56
2023-05-03T15:44:05.437Z,98770.94
2023-05-03T15:46:34.352Z,98769.25
2023-05-03T15:49:01.969Z,98772.56
2023-05-03T15:51:29.338Z,98774.22
2023-05-03T15:53:56.747Z,98770.75
2023-05-03T15:56:23.987Z,98768.06
2023-05-03T15:58:51.161Z,98763.88
2023-05-03T16:01:18.712Z,98768.69
2023-05-03T16:03:47.997Z,98755.06
2023-05-03T16:06:18.173Z,98765.44
2023-05-03T16:08:45.884Z,98756.22
2023-05-03T16:11:13.430Z,98754.53
2023-05-03T16:13:41.032Z,98756.53
2023-05-03T16:16:08.105Z,98759.53
2023-05-03T16:18:35.719Z,98758.53
2023-05-03T16:21:02.933Z,98755.38
2023-05-03T16:23:30.161Z,98753.19
2023-05-03T16:25:57.526Z,98754.59
2023-05-03T16:28:24.899Z,98748.75
2023-05-03T16:30:52.667Z,98740.84
2023-05-03T16:33:20.381Z,98751.94
2023-05-03T16:35:47.512Z,98758.44
2023-05-03T16:38:14.546Z,98745.31
2023-05-03T16:40:42.602Z,98739.25
2023-05-03T16:43:10.200Z,98746.16
2023-05-03T16:45:37.602Z,98748.06
2023-05-03T16:48:07.380Z,98745.25
2023-05-03T16:50:37.223Z,98746.97
2023-05-03T16:53:04.217Z,98744.16
2023-05-03T16:55:31.453Z,98740.16
2023-05-03T16:57:58.627Z,98749.50
2023-05-03T17:00:25.831Z,98740.25
2023-05-03T17:02:52.912Z,98736.69
2023-05-03T17:05:20.378Z,98738.25
2023-05-03T17:07:47.390Z,98742.22
2023-05-03T17:10:14.476Z,98744.66
2023-05-03T17:12:41.511Z,98740.44
2023-05-03T17:15:10.191Z,98739.47
2023-05-03T17:17:37.272Z,98739.97
2023-05-03T17:20:05.136Z,98732.47
2023-05-03T17:22:32.394Z,98747.59
2023-05-03T17:24:59.557Z,98744.03
2023-05-03T17:27:26.498Z,98742.16
2023-05-03T17:29:57.414Z,98745.72
2023-05-03T17:32:27.450Z,98738.66
2023-05-03T17:34:54.786Z,98737.06
2023-05-03T17:37:23.932Z,98731.22
2023-05-03T17:39:50.978Z,98745.31
2023-05-03T17:42:17.990Z,98746.72
2023-05-03T17:44:45.408Z,98740.91
2023-05-03T17:47:12.344Z,98745.34
2023-05-03T17:49:39.311Z,98741.16
2023-05-03T17:52:06.841Z,98744.88
2023-05-03T17:54:35.078Z,98740.22
2023-05-03T17:57:03.423Z,98741.47
2023-05-03T17:59:30.536Z,98740.69
2023-05-03T18:01:57.529Z,98741.81
2023-05-03T18:04:25.763Z,98745.91
2023-05-03T18:06:53.358Z,98743.13
2023-05-03T18:09:20.730Z,98747.25
2023-05-03T18:11:54.442Z,98752.56
2023-05-03T18:14:21.379Z,98755.84
2023-05-03T18:16:48.356Z,98752.69
2023-05-03T18:19:15.896Z,98756.94
2023-05-03T18:21:48.795Z,98763.94
2023-05-03T18:24:16.319Z,98761.13
2023-05-03T18:26:43.466Z,98759.38
2023-05-03T18:29:11.029Z,98760.63
2023-05-03T18:31:38.203Z,98755.59
2023-05-03T18:34:05.775Z,98757.50
2023-05-03T18:36:38.602Z,98756.47
2023-05-03T18:39:06.027Z,98762.44
2023-05-03T18:41:33.551Z,98772.69
2023-05-03T18:44:01.060Z,98770.81
2023-05-03T18:46:31.185Z,98782.06
2023-05-03T18:49:01.824Z,98772.03
2023-05-03T18:51:37.051Z,98774.22
2023-05-03T18:54:09.908Z,98780.72
2023-05-03T18:56:37.194Z,98783.41
2023-05-03T18:59:05.249Z,98780.03
2023-05-03T19:01:32.298Z,98785.66
2023-05-03T19:04:01.327Z,98788.25
2023-05-03T19:06:29.675Z,98790.94
2023-05-03T19:08:58.987Z,98789.31
2023-05-03T19:14:09.750Z,98798.88
2023-05-03T19:16:37.381Z,98793.50
2023-05-03T19:19:07.339Z,98795.50
2023-05-03T19:21:38.549Z,98800.25
2023-05-03T19:24:08.740Z,98798.97
2023-05-03T19:26:35.757Z,98796.97
2023-05-03T19:29:09.316Z,98803.97
2023-05-03T19:31:39.215Z,98808.63
2023-05-03T19:34:08.252Z,98800.41
2023-05-03T19:36:42.346Z,98795.88
2023-05-03T19:39:19.010Z,98794.31
2023-05-03T19:41:47.506Z,98804.47
2023-05-03T19:44:14.671Z,98795.16
2023-05-03T19:46:42.722Z,98788.97
2023-05-03T19:49:14.033Z,98798.13
2023-05-03T19:51:44.310Z,98802.09
2023-05-03T19:54:14.128Z,98794.81
2023-05-03T19:56:41.189Z,98798.53
2023-05-03T19:59:09.249Z,98800.81
2023-05-03T20:04:28.361Z,98810.91
2023-05-03T20:07:03.234Z,98803.09
2023-05-03T20:09:39.043Z,98808.91
2023-05-03T20:12:11.011Z,98807.34
2023-05-03T20:14:41.324Z,98815.53
2023-05-03T20:17:08.331Z,98816.72
2023-05-03T20:19:38.615Z,98815.63
2023-05-03T20:22:05.691Z,98816.81
2023-05-03T20:24:36.651Z,98816.88
2023-05-03T20:27:03.967Z,98819.72
2023-05-03T20:29:34.079Z,98830.16
2023-05-03T20:32:01.804Z,98819.16
2023-05-03T20:34:29.557Z,98825.34
2023-05-03T20:37:00.019Z,98819.81
2023-05-03T20:39:27.167Z,98818.31
2023-05-03T20:41:54.209Z,98810.78
2023-05-03T20:44:21.741Z,98813.41
2023-05-03T20:46:51.877Z,98815.69
2023-05-03T20:49:19.312Z,98812.53
2023-05-03T20:51:47.397Z,98808.94
2023-05-03T20:54:14.443Z,98803.44
2023-05-03T20:56:41.482Z,98801.88
2023-05-03T20:59:08.870Z,98808.03
2023-05-03T21:01:40.279Z,98810.72
2023-05-03T21:04:10.366Z,98803.44
2023-05-03T21:06:38.302Z,98802.06
2023-05-03T21:09:05.915Z,98801.63
2023-05-03T21:11:32.870Z,98806.47
2023-05-03T21:14:02.074Z,98793.75
2023-05-03T21:16:29.361Z,98812.03
2023-05-03T21:18:56.391Z,98819.09
2023-05-03T21:21:24.089Z,98811.13
2023-05-03T21:23:51.263Z,98812.91
2023-05-03T21:26:18.274Z,98815.09
2023-05-03T21:28:45.547Z,98812.03
2023-05-03T21:31:12.479Z,98801.81
2023-05-03T21:33:39.524Z,98792.56
2023-05-03T21:36:07.059Z,98796.22
2023-05-03T21:38:34.491Z,98788.19
2023-05-03T21:41:06.658Z,98790.00
2023-05-03T21:43:35.371Z,98785.69
2023-05-03T21:46:09.118Z,98781.09
2023-05-03T21:48:37.318Z,98782.06
2023-05-03T21:51:04.766Z,98785.75
2023-05-03T21:53:31.739Z,98777.31
2023-05-03T21:55:58.861Z,98779.94
2023-05-03T21:58:25.996Z,98776.84
2023-05-03T22:00:53.563Z,98774.59
2023-05-03T22:03:20.680Z,98776.91
2023-05-03T22:05:48.716Z,98766.03
2023-05-03T22:08:18.060Z,98774.88
2023-05-03T22:10:45.985Z,98775.44
2023-05-03T22:13:13.146Z,98782.03
2023-05-03T22:15:40.439Z,98775.44
2023-05-03T22:18:07.747Z,98772.59
2023-05-03T22:20:34.738Z,98776.56
2023-05-03T22:23:01.808Z,98766.59
2023-05-03T22:25:32.127Z,98769.22
2023-05-03T22:27:59.732Z,98767.56
2023-05-03T22:30:27.605Z,98771.69
2023-05-03T22:32:54.599Z,98766.34
2023-05-03T22:35:21.683Z,98766.03
2023-05-03T22:37:48.716Z,98765.31
2023-05-03T22:40:15.945Z,98767.31
2023-05-03T22:42:43.067Z,98757.81
2023-05-03T22:45:10.698Z,98759.97
2023-05-03T22:47:38.252Z,98754.47
2023-05-03T22:50:06.591Z,98759.06
2023-05-03T22:52:33.789Z,98747.63
2023-05-03T22:55:01.411Z,98749.53
2023-05-03T22:57:28.524Z,98757.41
2023-05-03T22:59:55.812Z,98754.88
2023-05-03T23:02:22.981Z,98756.56
2023-05-03T23:04:50.143Z,98750.06
2023-05-03T23:07:18.038Z,98763.28
2023-05-03T23:09:48.816Z,98755.53
2023-05-03T23:12:15.947Z,98756.31
2023-05-03T23:14:45.954Z,98756.72
2023-05-03T23:17:13.027Z,98747.34
2023-05-03T23:19:40.206Z,98742.06
2023-05-03T23:22:07.549Z,98742.34
2023-05-03T23:24:35.023Z,98741.81
2023-05-03T23:27:02.424Z,98745.81
2023-05-03T23:29:30.059Z,98740.81
2023-05-03T23:31:57.347Z,98741.97
2023-05-03T23:34:25.154Z,98741.97
2023-05-03T23:36:52.115Z,98745.53
2023-05-03T23:39:19.070Z,98740.34
2023-05-03T23:41:46.039Z,98731.75
2023-05-03T23:44:13.004Z,98736.09
2023-05-03T23:46:39.988Z,98738.88
2023-05-03T23:49:07.580Z,98732.81
2023-05-03T23:51:34.728Z,98734.91
2023-05-03T23:54:01.692Z,98731.06
2023-05-03T23:56:28.640Z,98729.44
2023-05-03T23:58:55.755Z,98729.16
